createdAt,value
2019-04-25T00:01:52.322Z,14.00
2019-04-25T00:04:48.008Z,12.13
2019-04-25T00:07:43.962Z,12.77
2019-04-25T00:10:42.562Z,14.00
2019-04-25T00:13:38.309Z,13.73
2019-04-25T00:16:36.803Z,16.27
2019-04-25T00:22:06.410Z,19.87
2019-04-25T00:24:47.903Z,19.77
2019-04-25T00:27:19.792Z,16.40
2019-04-25T00:29:51.631Z,17.37
2019-04-25T00:32:22.859Z,17.17
2019-04-25T00:34:53.075Z,15.70
2019-04-25T00:37:24.906Z,16.47
2019-04-25T00:39:55.243Z,17.17
2019-04-25T00:42:26.338Z,18.00
2019-04-25T00:44:58.199Z,16.70
2019-04-25T00:47:28.366Z,20.00
2019-04-25T00:49:58.628Z,20.40
2019-04-25T00:52:31.321Z,17.10
2019-04-25T00:55:01.997Z,19.33
2019-04-25T00:57:32.385Z,19.60
2019-04-25T01:00:18.168Z,20.47
2019-04-25T01:02:52.497Z,20.45
2019-04-25T01:05:22.433Z,20.27
2019-04-25T01:07:53.570Z,20.70
2019-04-25T01:10:24.780Z,19.82
2019-04-25T01:12:55.762Z,20.00
2019-04-25T01:15:26.835Z,20.80
2019-04-25T01:17:57.143Z,21.10
2019-04-25T01:20:27.320Z,19.80
2019-04-25T01:22:57.833Z,20.62
2019-04-25T01:25:38.636Z,20.07
2019-04-25T01:27:59.969Z,19.30
2019-04-25T01:30:30.479Z,21.40
2019-04-25T01:33:01.517Z,21.07
2019-04-25T01:35:56.916Z,22.60
2019-04-25T01:38:33.535Z,20.17
2019-04-25T01:41:21.738Z,19.50
2019-04-25T01:43:58.357Z,20.17
2019-04-25T01:46:28.045Z,21.48
2019-04-25T01:48:58.685Z,20.17
2019-04-25T01:51:29.043Z,23.57
2019-04-25T01:53:59.273Z,21.07
2019-04-25T01:56:29.432Z,22.57
2019-04-25T01:58:59.667Z,23.97
2019-04-25T02:01:30.343Z,21.10
2019-04-25T02:04:00.614Z,24.83
2019-04-25T02:06:30.944Z,23.20
2019-04-25T02:09:01.318Z,27.42
2019-04-25T02:11:54.718Z,24.40
2019-04-25T02:14:24.993Z,24.67
2019-04-25T02:16:56.272Z,25.07
2019-04-25T02:19:27.405Z,24.87
2019-04-25T02:21:57.876Z,20.60
2019-04-25T02:24:28.097Z,23.55
2019-04-25T02:26:58.733Z,21.70
2019-04-25T02:29:29.649Z,25.67
2019-04-25T02:32:02.848Z,21.73
2019-04-25T02:34:34.376Z,22.07
2019-04-25T02:37:08.886Z,21.62
2019-04-25T02:39:37.460Z,20.57
2019-04-25T02:42:08.718Z,25.67
2019-04-25T02:44:44.502Z,25.85
2019-04-25T02:47:24.877Z,23.90
2019-04-25T02:50:11.940Z,26.80
2019-04-25T02:52:50.479Z,24.70
2019-04-25T02:55:30.784Z,24.83
2019-04-25T02:57:54.211Z,26.53
2019-04-25T03:00:27.422Z,27.80
2019-04-25T03:02:59.165Z,25.93
2019-04-25T03:05:29.934Z,22.63
2019-04-25T03:08:01.454Z,25.63
2019-04-25T03:10:34.775Z,25.73
2019-04-25T03:13:07.015Z,23.75
2019-04-25T03:15:36.522Z,22.63
2019-04-25T03:18:11.166Z,25.23
2019-04-25T03:20:48.641Z,25.00
2019-04-25T03:23:42.238Z,22.23
2019-04-25T03:26:10.618Z,22.73
2019-04-25T03:28:41.138Z,24.30
2019-04-25T03:31:18.593Z,21.68
2019-04-25T03:33:45.799Z,20.40
2019-04-25T03:36:17.006Z,20.43
2019-04-25T03:38:47.304Z,22.77
2019-04-25T03:41:17.649Z,22.33
2019-04-25T03:43:47.874Z,21.57
2019-04-25T03:46:18.148Z,20.72
2019-04-25T03:48:48.527Z,19.30
2019-04-25T03:51:18.784Z,19.13
2019-04-25T03:53:49.078Z,20.33
2019-04-25T03:56:19.420Z,20.23
2019-04-25T03:58:50.522Z,20.10
2019-04-25T04:01:20.853Z,20.97
2019-04-25T04:03:53.696Z,17.70
2019-04-25T04:06:24.560Z,20.83
2019-04-25T04:08:54.892Z,21.13
2019-04-25T04:11:25.146Z,18.33
2019-04-25T04:13:55.623Z,19.80
2019-04-25T04:16:29.719Z,22.97
2019-04-25T04:19:00.021Z,19.65
